Glenwillard, PA (15046)

3:03 AM EDT on August 25, 2016 (GMT -0400)
Quaker Heights | | Change Station

Elev 1138 ft 40.57 °N, 80.21 °W | Updated 15 minutes ago

Overcast
Overcast
74.7 °F
Feels Like 75 °F
N
3.2
Wind Variable Wind from SW

Today
High -- | Low -- °F
--% Chance of Precip.
Yesterday
High -- | Low -- °F
Precip. -- in
Pressure 30.05 in
Visibility 10.0 miles
Clouds Scattered Clouds 3800 ft
Mostly Cloudy 5500 ft
Overcast 15000 ft
Heat Index 75 °F
Dew Point 68 °F
Humidity 80%
Rainfall 0.00 in
Snow Depth Not available.
6:41 AM 8:03 PM
Waning Gibbous, 48% visible
METAR KPIT 250651Z 18006KT 10SM SCT038 BKN055 OVC150 24/19 A3005 RMK AO2 SLP174 T02390189
Pressure 30.05 in
Visibility 10.0 miles
Clouds Scattered Clouds 3800 ft
Mostly Cloudy 5500 ft
Overcast 15000 ft
Heat Index 75 °F
Dew Point 68 °F
Humidity 80%
Rainfall 0.00 in
Snow Depth Not available.
6:41 AM 8:03 PM
Waning Gibbous, 48% visible
METAR KPIT 250651Z 18006KT 10SM SCT038 BKN055 OVC150 24/19 A3005 RMK AO2 SLP174 T02390189

10-Day Weather Forecast

Almanac

Astronomy

Aug. 25, 2016 Rise Set
Actual Time
Civil Twilight
Nautical Twilight
Astronomical Twilight
Moon
Length of Visible Light
Length of Day
Tomorrow will be .
, % of the Moon is Illuminated

Today's Extremes

State Highs State Lows

Community

WunderPhotos

Upload Photos

1,934,803 photos uploaded!

WunderBlog® & News

Nearby

Air Quality

  Air Quality AQ Index Pollutant
Not available.

Snow Depth

Station Depth Elevation

Earthquake Activity

City Distance Mag. Time & Date
Minimum magnitude displayed is 2.5.

Coastal Water Temperatures

Place Temperature

Stations

Nearby Weather Stations

Station Location Temp. Windchill Dew Point Humidity Wind Precip. Elev Updated Type
                   

Watches & Warnings

There are currently no watches in effect.